Marianne Danica — OWWO2 — position and weather

sailwx.info

Track history (hours):
 
Tides and Currents Weather Stations Pressure Air Temp Water Temp Dewpoint Dewpoint Depression Visibility Wind Speed Wind Dir Waves Ship Positions

Marianne Danica

Last reported at 2018-Jun-08 07:11 UTC. Time now 2018-Jul-22 04:37 UTC.
Position N 01°19' E 103°21'.
Warning: this ship's position is 43 days out of date.

Length 72 m; draft 3.6 m.

Type: Ship (hazmat cat A). MMSI: 219544000.

Date/timePositionNaut miles runAvg speedWind from/ knotsBaromVisibWave heightAir tempDewpointWater temp
2018-Jun-08 07:11N 01°19' E 103°21'2 9.8
2018-Jun-08 06:58N 01°17' E 103°22'5 9.7
2018-Jun-08 06:30N 01°15' E 103°26'510.0
2018-Jun-08 05:59N 01°13' E 103°31'510.0
2018-Jun-08 05:30N 01°13' E 103°36'4 8.5
2018-Jun-08 05:00N 01°17' E 103°37'0 0.6
2018-Jun-08 04:29N 01°17' E 103°37'0 0.0
2018-Jun-08 03:59N 01°17' E 103°37'0 0.0
2018-Jun-08 03:29N 01°17' E 103°37'0 0.0
2018-Jun-08 02:58N 01°17' E 103°37'0 0.0
2018-Jun-08 02:28N 01°17' E 103°37'0 0.0
2018-Jun-08 01:56N 01°17' E 103°37'0 0.0
2018-Jun-08 01:29N 01°17' E 103°37'0 0.0
2018-Jun-08 00:56N 01°17' E 103°37'1 1.9
2018-Jun-08 00:31N 01°16' E 103°36'4 7.0
2018-Jun-08 00:00N 01°13' E 103°36'3 7.1
2018-Jun-07 23:30N 01°12' E 103°39'4 7.4
2018-Jun-07 23:00N 01°10' E 103°43'0 0.1
2018-Jun-07 22:17N 01°10' E 103°43'0 0.0
2018-Jun-07 21:59N 01°10' E 103°43'0 0.1
2018-Jun-07 21:26N 01°10' E 103°43'0 0.0
2018-Jun-07 20:59N 01°10' E 103°43'0 0.0
2018-Jun-07 20:25N 01°10' E 103°43'0 0.0
2018-Jun-07 19:59N 01°10' E 103°43'0 0.1
2018-Jun-07 19:28N 01°10' E 103°43'0 0.0
2018-Jun-07 18:56N 01°10' E 103°43'0 0.0
2018-Jun-07 18:28N 01°10' E 103°43'0 0.0
2018-Jun-07 17:58N 01°10' E 103°43'0 0.0
2018-Jun-07 17:28N 01°10' E 103°43'0 0.0
2018-Jun-07 16:55N 01°10' E 103°43'0 0.0
2018-Jun-07 16:28N 01°10' E 103°43'0 0.0
2018-Jun-07 15:58N 01°10' E 103°43'0 0.0
2018-Jun-07 15:30N 01°10' E 103°43'0 0.0
2018-Jun-07 14:49N 01°10' E 103°43'0 0.0
2018-Jun-07 14:19N 01°10' E 103°43'0 0.0
2018-Jun-07 13:55N 01°10' E 103°43'0 0.0
2018-Jun-07 13:25N 01°10' E 103°43'0 0.0
2018-Jun-07 12:58N 01°10' E 103°43'0 0.0
2018-Jun-07 12:21N 01°10' E 103°43'0 0.0
2018-Jun-07 11:58N 01°10' E 103°43'0 0.0
2018-Jun-07 11:25N 01°10' E 103°43'0 0.0
2018-Jun-07 10:40N 01°10' E 103°43'0 0.0
2018-Jun-07 10:28N 01°10' E 103°43'0 0.0
2018-Jun-07 09:55N 01°10' E 103°43'0 0.0
2018-Jun-07 09:27N 01°10' E 103°43'0 0.1
2018-Jun-07 08:58N 01°10' E 103°43'1 2.3
2018-Jun-07 08:30N 01°10' E 103°44'4 8.8
2018-Jun-07 08:00N 01°11' E 103°48'2 3.7
2018-Jun-07 07:30N 01°11' E 103°50'4 7.0
2018-Jun-07 06:59N 01°13' E 103°53'3 6.7
2018-Jun-07 06:28N 01°14' E 103°56'3 6.4
2018-Jun-07 05:59N 01°15' E 103°59'  
Track history (hours):
 
Tides and Currents Weather Stations Pressure Air Temp Water Temp Dewpoint Dewpoint Depression Visibility Wind Speed Wind Dir Waves Ship Positions

Marianne Danica

Last reported at 2018-Jun-08 07:11 UTC. Time now 2018-Jul-22 04:37 UTC.
Position N 01°19' E 103°21'.
Warning: this ship's position is 43 days out of date.

Length 72 m; draft 3.6 m.

Type: Ship (hazmat cat A). MMSI: 219544000.

Date/timePositionNaut miles runAvg speedWind from/ knotsBaromVisibWave heightAir tempDewpointWater temp
2018-Jun-08 07:11N 01°19' E 103°21'2 9.8
2018-Jun-08 06:58N 01°17' E 103°22'5 9.7
2018-Jun-08 06:30N 01°15' E 103°26'510.0
2018-Jun-08 05:59N 01°13' E 103°31'510.0
2018-Jun-08 05:30N 01°13' E 103°36'4 8.5
2018-Jun-08 05:00N 01°17' E 103°37'0 0.6
2018-Jun-08 04:29N 01°17' E 103°37'0 0.0
2018-Jun-08 03:59N 01°17' E 103°37'0 0.0
2018-Jun-08 03:29N 01°17' E 103°37'0 0.0
2018-Jun-08 02:58N 01°17' E 103°37'0 0.0
2018-Jun-08 02:28N 01°17' E 103°37'0 0.0
2018-Jun-08 01:56N 01°17' E 103°37'0 0.0
2018-Jun-08 01:29N 01°17' E 103°37'0 0.0
2018-Jun-08 00:56N 01°17' E 103°37'1 1.9
2018-Jun-08 00:31N 01°16' E 103°36'4 7.0
2018-Jun-08 00:00N 01°13' E 103°36'3 7.1
2018-Jun-07 23:30N 01°12' E 103°39'4 7.4
2018-Jun-07 23:00N 01°10' E 103°43'0 0.1
2018-Jun-07 22:17N 01°10' E 103°43'0 0.0
2018-Jun-07 21:59N 01°10' E 103°43'0 0.1
2018-Jun-07 21:26N 01°10' E 103°43'0 0.0
2018-Jun-07 20:59N 01°10' E 103°43'0 0.0
2018-Jun-07 20:25N 01°10' E 103°43'0 0.0
2018-Jun-07 19:59N 01°10' E 103°43'0 0.1
2018-Jun-07 19:28N 01°10' E 103°43'0 0.0
2018-Jun-07 18:56N 01°10' E 103°43'0 0.0
2018-Jun-07 18:28N 01°10' E 103°43'0 0.0
2018-Jun-07 17:58N 01°10' E 103°43'0 0.0
2018-Jun-07 17:28N 01°10' E 103°43'0 0.0
2018-Jun-07 16:55N 01°10' E 103°43'0 0.0
2018-Jun-07 16:28N 01°10' E 103°43'0 0.0
2018-Jun-07 15:58N 01°10' E 103°43'0 0.0
2018-Jun-07 15:30N 01°10' E 103°43'0 0.0
2018-Jun-07 14:49N 01°10' E 103°43'0 0.0
2018-Jun-07 14:19N 01°10' E 103°43'0 0.0
2018-Jun-07 13:55N 01°10' E 103°43'0 0.0
2018-Jun-07 13:25N 01°10' E 103°43'0 0.0
2018-Jun-07 12:58N 01°10' E 103°43'0 0.0
2018-Jun-07 12:21N 01°10' E 103°43'0 0.0
2018-Jun-07 11:58N 01°10' E 103°43'0 0.0
2018-Jun-07 11:25N 01°10' E 103°43'0 0.0
2018-Jun-07 10:40N 01°10' E 103°43'0 0.0
2018-Jun-07 10:28N 01°10' E 103°43'0 0.0
2018-Jun-07 09:55N 01°10' E 103°43'0 0.0
2018-Jun-07 09:27N 01°10' E 103°43'0 0.1
2018-Jun-07 08:58N 01°10' E 103°43'1 2.3
2018-Jun-07 08:30N 01°10' E 103°44'4 8.8
2018-Jun-07 08:00N 01°11' E 103°48'2 3.7
2018-Jun-07 07:30N 01°11' E 103°50'4 7.0
2018-Jun-07 06:59N 01°13' E 103°53'3 6.7
2018-Jun-07 06:28N 01°14' E 103°56'3 6.4
2018-Jun-07 05:59N 01°15' E 103°59'  

Dump ship's entire track history